sensor_id;sensor_type;location;lat;lon;timestamp;temperature;humidity
31451;DHT22;18070;52.474;13.304;2023-08-17T00:00:29;21.90;99.90
31451;DHT22;18070;52.474;13.304;2023-08-17T00:02:55;22.00;99.90
31451;DHT22;18070;52.474;13.304;2023-08-17T00:05:21;21.90;99.90
31451;DHT22;18070;52.474;13.304;2023-08-17T00:07:46;21.90;99.90
31451;DHT22;18070;52.474;13.304;2023-08-17T00:10:12;21.90;99.90
31451;DHT22;18070;52.474;13.304;2023-08-17T00:12:37;21.90;99.90
31451;DHT22;18070;52.474;13.304;2023-08-17T00:15:03;21.80;99.90
31451;DHT22;18070;52.474;13.304;2023-08-17T00:17:29;21.90;99.90
31451;DHT22;18070;52.474;13.304;2023-08-17T00:19:55;21.80;99.90
31451;DHT22;18070;52.474;13.304;2023-08-17T00:22:21;21.80;99.90
31451;DHT22;18070;52.474;13.304;2023-08-17T00:24:46;21.80;99.90
31451;DHT22;18070;52.474;13.304;2023-08-17T00:27:12;21.80;99.90
31451;DHT22;18070;52.474;13.304;2023-08-17T00:29:37;21.70;99.90
31451;DHT22;18070;52.474;13.304;2023-08-17T00:32:03;21.70;99.90
31451;DHT22;18070;52.474;13.304;2023-08-17T00:34:29;21.70;99.90
31451;DHT22;18070;52.474;13.304;2023-08-17T00:36:55;21.70;99.90
31451;DHT22;18070;52.474;13.304;2023-08-17T00:39:20;21.60;99.90
31451;DHT22;18070;52.474;13.304;2023-08-17T00:41:46;21.60;99.90
31451;DHT22;18070;52.474;13.304;2023-08-17T00:44:12;21.60;99.90
31451;DHT22;18070;52.474;13.304;2023-08-17T00:46:38;21.60;99.90
31451;DHT22;18070;52.474;13.304;2023-08-17T00:49:04;21.60;99.90
31451;DHT22;18070;52.474;13.304;2023-08-17T00:51:30;21.50;99.90
31451;DHT22;18070;52.474;13.304;2023-08-17T00:53:59;21.50;99.90
31451;DHT22;18070;52.474;13.304;2023-08-17T00:56:26;21.40;99.90
31451;DHT22;18070;52.474;13.304;2023-08-17T00:58:52;21.50;99.90
31451;DHT22;18070;52.474;13.304;2023-08-17T01:01:19;21.40;99.90
31451;DHT22;18070;52.474;13.304;2023-08-17T01:03:45;21.30;99.90
31451;DHT22;18070;52.474;13.304;2023-08-17T01:06:11;21.50;99.90
31451;DHT22;18070;52.474;13.304;2023-08-17T01:08:37;21.40;99.90
31451;DHT22;18070;52.474;13.304;2023-08-17T01:11:21;21.30;99.90
31451;DHT22;18070;52.474;13.304;2023-08-17T01:14:05;21.30;99.90
31451;DHT22;18070;52.474;13.304;2023-08-17T01:17:22;21.30;99.90
31451;DHT22;18070;52.474;13.304;2023-08-17T01:19:27;21.20;99.90
31451;DHT22;18070;52.474;13.304;2023-08-17T01:22:04;21.20;99.90
31451;DHT22;18070;52.474;13.304;2023-08-17T01:24:30;21.10;99.90
31451;DHT22;18070;52.474;13.304;2023-08-17T01:26:56;21.20;99.90
31451;DHT22;18070;52.474;13.304;2023-08-17T01:29:22;21.30;99.90
31451;DHT22;18070;52.474;13.304;2023-08-17T01:31:57;21.20;99.90
31451;DHT22;18070;52.474;13.304;2023-08-17T01:34:27;21.10;99.90
31451;DHT22;18070;52.474;13.304;2023-08-17T01:36:58;21.20;99.90
31451;DHT22;18070;52.474;13.304;2023-08-17T01:39:30;21.10;99.90
31451;DHT22;18070;52.474;13.304;2023-08-17T01:41:58;21.00;99.90
31451;DHT22;18070;52.474;13.304;2023-08-17T01:44:25;21.00;99.90
31451;DHT22;18070;52.474;13.304;2023-08-17T01:46:51;21.00;99.90
31451;DHT22;18070;52.474;13.304;2023-08-17T01:49:17;21.10;99.90
31451;DHT22;18070;52.474;13.304;2023-08-17T01:51:42;21.10;99.90
31451;DHT22;18070;52.474;13.304;2023-08-17T01:54:08;21.00;99.90
31451;DHT22;18070;52.474;13.304;2023-08-17T01:56:34;21.00;99.90
31451;DHT22;18070;52.474;13.304;2023-08-17T01:58:59;20.90;99.90
31451;DHT22;18070;52.474;13.304;2023-08-17T02:01:25;20.90;99.90
31451;DHT22;18070;52.474;13.304;2023-08-17T02:03:51;20.90;99.90
31451;DHT22;18070;52.474;13.304;2023-08-17T02:06:16;20.80;99.90
31451;DHT22;18070;52.474;13.304;2023-08-17T02:08:43;20.90;99.90
31451;DHT22;18070;52.474;13.304;2023-08-17T02:11:09;20.90;99.90
31451;DHT22;18070;52.474;13.304;2023-08-17T02:13:35;20.80;99.90
31451;DHT22;18070;52.474;13.304;2023-08-17T02:16:05;20.80;99.90
31451;DHT22;18070;52.474;13.304;2023-08-17T02:18:31;20.80;99.90
31451;DHT22;18070;52.474;13.304;2023-08-17T02:20:58;20.70;99.90
31451;DHT22;18070;52.474;13.304;2023-08-17T02:23:24;20.70;99.90
31451;DHT22;18070;52.474;13.304;2023-08-17T02:25:50;20.80;99.90
31451;DHT22;18070;52.474;13.304;2023-08-17T02:28:15;20.80;99.90
31451;DHT22;18070;52.474;13.304;2023-08-17T02:30:41;20.70;99.90
31451;DHT22;18070;52.474;13.304;2023-08-17T02:33:07;20.60;99.90
31451;DHT22;18070;52.474;13.304;2023-08-17T02:35:33;20.70;99.90
31451;DHT22;18070;52.474;13.304;2023-08-17T02:37:58;20.70;99.90
31451;DHT22;18070;52.474;13.304;2023-08-17T02:40:24;20.70;99.90
31451;DHT22;18070;52.474;13.304;2023-08-17T02:42:50;20.70;99.90
31451;DHT22;18070;52.474;13.304;2023-08-17T02:45:15;20.70;99.90
31451;DHT22;18070;52.474;13.304;2023-08-17T02:47:41;20.70;99.90
31451;DHT22;18070;52.474;13.304;2023-08-17T02:50:07;20.60;99.90
31451;DHT22;18070;52.474;13.304;2023-08-17T02:52:33;20.60;99.90
31451;DHT22;18070;52.474;13.304;2023-08-17T02:54:58;20.60;99.90
31451;DHT22;18070;52.474;13.304;2023-08-17T02:57:24;20.60;99.90
31451;DHT22;18070;52.474;13.304;2023-08-17T02:59:49;20.60;99.90
31451;DHT22;18070;52.474;13.304;2023-08-17T03:02:15;20.60;99.90
31451;DHT22;18070;52.474;13.304;2023-08-17T03:04:41;20.50;99.90
31451;DHT22;18070;52.474;13.304;2023-08-17T03:07:07;20.50;99.90
31451;DHT22;18070;52.474;13.304;2023-08-17T03:09:32;20.60;99.90
31451;DHT22;18070;52.474;13.304;2023-08-17T03:11:58;20.60;99.90
31451;DHT22;18070;52.474;13.304;2023-08-17T03:14:23;20.50;99.90
31451;DHT22;18070;52.474;13.304;2023-08-17T03:16:49;20.40;99.90
31451;DHT22;18070;52.474;13.304;2023-08-17T03:19:15;20.50;99.90
31451;DHT22;18070;52.474;13.304;2023-08-17T03:21:40;20.40;99.90
31451;DHT22;18070;52.474;13.304;2023-08-17T03:24:07;20.40;99.90
31451;DHT22;18070;52.474;13.304;2023-08-17T03:26:32;20.50;99.90
31451;DHT22;18070;52.474;13.304;2023-08-17T03:28:58;20.50;99.90
31451;DHT22;18070;52.474;13.304;2023-08-17T03:31:24;20.50;99.90
31451;DHT22;18070;52.474;13.304;2023-08-17T03:33:49;20.50;99.90
31451;DHT22;18070;52.474;13.304;2023-08-17T03:36:15;20.50;99.90
31451;DHT22;18070;52.474;13.304;2023-08-17T03:38:41;20.50;99.90
31451;DHT22;18070;52.474;13.304;2023-08-17T03:41:07;20.50;99.90
31451;DHT22;18070;52.474;13.304;2023-08-17T03:43:33;20.50;99.90
31451;DHT22;18070;52.474;13.304;2023-08-17T03:45:58;20.50;99.90
31451;DHT22;18070;52.474;13.304;2023-08-17T03:48:24;20.50;99.90
31451;DHT22;18070;52.474;13.304;2023-08-17T03:50:54;20.40;99.90
31451;DHT22;18070;52.474;13.304;2023-08-17T03:53:20;20.40;99.90
31451;DHT22;18070;52.474;13.304;2023-08-17T03:55:50;20.40;99.90
31451;DHT22;18070;52.474;13.304;2023-08-17T03:58:17;20.40;99.90
31451;DHT22;18070;52.474;13.304;2023-08-17T04:00:49;20.50;99.90
31451;DHT22;18070;52.474;13.304;2023-08-17T04:03:15;20.40;99.90
31451;DHT22;18070;52.474;13.304;2023-08-17T04:05:41;20.40;99.90
31451;DHT22;18070;52.474;13.304;2023-08-17T04:08:07;20.40;99.90
31451;DHT22;18070;52.474;13.304;2023-08-17T04:10:32;20.50;99.90
31451;DHT22;18070;52.474;13.304;2023-08-17T04:12:58;20.40;99.90
31451;DHT22;18070;52.474;13.304;2023-08-17T04:15:23;20.40;99.90
31451;DHT22;18070;52.474;13.304;2023-08-17T04:17:49;20.40;99.90
31451;DHT22;18070;52.474;13.304;2023-08-17T04:20:15;20.40;99.90
31451;DHT22;18070;52.474;13.304;2023-08-17T04:22:40;20.50;99.90
31451;DHT22;18070;52.474;13.304;2023-08-17T04:25:06;20.40;99.90
31451;DHT22;18070;52.474;13.304;2023-08-17T04:27:33;20.40;99.90
31451;DHT22;18070;52.474;13.304;2023-08-17T04:30:00;20.40;99.90
31451;DHT22;18070;52.474;13.304;2023-08-17T04:32:26;20.50;99.90
31451;DHT22;18070;52.474;13.304;2023-08-17T04:34:51;20.50;99.90
31451;DHT22;18070;52.474;13.304;2023-08-17T04:37:17;20.50;99.90
31451;DHT22;18070;52.474;13.304;2023-08-17T04:39:42;20.60;99.90
31451;DHT22;18070;52.474;13.304;2023-08-17T04:42:09;20.60;99.90
31451;DHT22;18070;52.474;13.304;2023-08-17T04:44:35;20.60;99.90
31451;DHT22;18070;52.474;13.304;2023-08-17T04:47:00;20.60;99.90
31451;DHT22;18070;52.474;13.304;2023-08-17T04:49:26;20.60;99.90
31451;DHT22;18070;52.474;13.304;2023-08-17T04:51:52;20.60;99.90
31451;DHT22;18070;52.474;13.304;2023-08-17T04:54:18;20.60;99.90
31451;DHT22;18070;52.474;13.304;2023-08-17T04:56:44;20.70;99.90
31451;DHT22;18070;52.474;13.304;2023-08-17T04:59:09;20.70;99.90
31451;DHT22;18070;52.474;13.304;2023-08-17T05:01:35;20.80;99.90
31451;DHT22;18070;52.474;13.304;2023-08-17T05:04:01;20.70;99.90
31451;DHT22;18070;52.474;13.304;2023-08-17T05:06:28;20.70;99.90
31451;DHT22;18070;52.474;13.304;2023-08-17T05:08:54;20.70;99.90
31451;DHT22;18070;52.474;13.304;2023-08-17T05:11:20;20.70;99.90
31451;DHT22;18070;52.474;13.304;2023-08-17T05:13:45;20.70;99.90
31451;DHT22;18070;52.474;13.304;2023-08-17T05:16:11;20.80;99.90
31451;DHT22;18070;52.474;13.304;2023-08-17T05:18:36;20.80;99.90
31451;DHT22;18070;52.474;13.304;2023-08-17T05:21:02;20.80;99.90
31451;DHT22;18070;52.474;13.304;2023-08-17T05:23:28;20.80;99.90
31451;DHT22;18070;52.474;13.304;2023-08-17T05:25:53;20.70;99.90
31451;DHT22;18070;52.474;13.304;2023-08-17T05:28:19;20.70;99.90
31451;DHT22;18070;52.474;13.304;2023-08-17T05:30:45;20.70;99.90
31451;DHT22;18070;52.474;13.304;2023-08-17T05:33:10;20.70;99.90
31451;DHT22;18070;52.474;13.304;2023-08-17T05:35:36;20.70;99.90
31451;DHT22;18070;52.474;13.304;2023-08-17T05:38:02;20.80;99.90
31451;DHT22;18070;52.474;13.304;2023-08-17T05:40:30;20.80;99.90
31451;DHT22;18070;52.474;13.304;2023-08-17T05:42:56;20.80;99.90
31451;DHT22;18070;52.474;13.304;2023-08-17T05:45:22;20.90;99.90
31451;DHT22;18070;52.474;13.304;2023-08-17T05:47:47;20.90;99.90
31451;DHT22;18070;52.474;13.304;2023-08-17T05:50:13;20.90;99.90
31451;DHT22;18070;52.474;13.304;2023-08-17T05:52:41;21.00;99.90
31451;DHT22;18070;52.474;13.304;2023-08-17T05:55:06;21.10;99.90
31451;DHT22;18070;52.474;13.304;2023-08-17T05:57:32;21.20;99.90
31451;DHT22;18070;52.474;13.304;2023-08-17T05:59:58;21.10;99.90
31451;DHT22;18070;52.474;13.304;2023-08-17T06:02:23;21.10;99.90
31451;DHT22;18070;52.474;13.304;2023-08-17T06:04:49;21.10;99.90
31451;DHT22;18070;52.474;13.304;2023-08-17T06:07:14;21.00;99.90
31451;DHT22;18070;52.474;13.304;2023-08-17T06:09:40;21.00;99.90
31451;DHT22;18070;52.474;13.304;2023-08-17T06:12:06;21.00;99.90
31451;DHT22;18070;52.474;13.304;2023-08-17T06:14:32;21.00;99.90
31451;DHT22;18070;52.474;13.304;2023-08-17T06:16:58;21.10;99.90
31451;DHT22;18070;52.474;13.304;2023-08-17T06:19:24;21.20;99.90
31451;DHT22;18070;52.474;13.304;2023-08-17T06:21:51;21.30;99.90
31451;DHT22;18070;52.474;13.304;2023-08-17T06:24:17;21.40;99.90
31451;DHT22;18070;52.474;13.304;2023-08-17T06:26:44;21.50;99.90
31451;DHT22;18070;52.474;13.304;2023-08-17T06:29:11;21.60;99.90
31451;DHT22;18070;52.474;13.304;2023-08-17T06:31:36;21.50;99.90
31451;DHT22;18070;52.474;13.304;2023-08-17T06:34:02;21.40;99.90
31451;DHT22;18070;52.474;13.304;2023-08-17T06:36:30;21.50;99.90
31451;DHT22;18070;52.474;13.304;2023-08-17T06:38:56;21.40;99.90
31451;DHT22;18070;52.474;13.304;2023-08-17T06:41:22;21.40;99.90
31451;DHT22;18070;52.474;13.304;2023-08-17T06:43:48;21.40;99.90
31451;DHT22;18070;52.474;13.304;2023-08-17T06:46:13;21.40;99.90
31451;DHT22;18070;52.474;13.304;2023-08-17T06:48:39;21.40;99.90
31451;DHT22;18070;52.474;13.304;2023-08-17T06:51:04;21.50;99.90
31451;DHT22;18070;52.474;13.304;2023-08-17T06:53:31;21.50;99.90
31451;DHT22;18070;52.474;13.304;2023-08-17T06:55:56;21.40;99.90
31451;DHT22;18070;52.474;13.304;2023-08-17T06:58:22;21.50;99.90
31451;DHT22;18070;52.474;13.304;2023-08-17T07:00:47;21.40;99.90
31451;DHT22;18070;52.474;13.304;2023-08-17T07:03:13;21.50;99.90
31451;DHT22;18070;52.474;13.304;2023-08-17T07:05:39;21.50;99.90
31451;DHT22;18070;52.474;13.304;2023-08-17T07:08:05;21.80;99.90
31451;DHT22;18070;52.474;13.304;2023-08-17T07:10:30;21.80;99.90
31451;DHT22;18070;52.474;13.304;2023-08-17T07:12:56;21.80;99.90
31451;DHT22;18070;52.474;13.304;2023-08-17T07:15:22;21.80;99.90
31451;DHT22;18070;52.474;13.304;2023-08-17T07:17:47;21.70;99.90
31451;DHT22;18070;52.474;13.304;2023-08-17T07:20:13;21.70;99.90
31451;DHT22;18070;52.474;13.304;2023-08-17T07:22:38;21.80;99.90
31451;DHT22;18070;52.474;13.304;2023-08-17T07:25:04;21.70;99.90
31451;DHT22;18070;52.474;13.304;2023-08-17T07:27:30;21.70;99.90
31451;DHT22;18070;52.474;13.304;2023-08-17T07:29:56;21.70;99.90
31451;DHT22;18070;52.474;13.304;2023-08-17T07:32:21;21.70;99.90
31451;DHT22;18070;52.474;13.304;2023-08-17T07:34:47;21.60;99.90
31451;DHT22;18070;52.474;13.304;2023-08-17T07:37:13;21.60;99.90
31451;DHT22;18070;52.474;13.304;2023-08-17T07:39:39;21.60;99.90
31451;DHT22;18070;52.474;13.304;2023-08-17T07:42:04;21.60;99.90
31451;DHT22;18070;52.474;13.304;2023-08-17T07:44:30;21.70;99.90
31451;DHT22;18070;52.474;13.304;2023-08-17T07:47:00;21.80;99.90
31451;DHT22;18070;52.474;13.304;2023-08-17T07:49:27;21.90;99.90
31451;DHT22;18070;52.474;13.304;2023-08-17T07:51:53;22.00;99.90
31451;DHT22;18070;52.474;13.304;2023-08-17T07:54:18;22.10;99.90
31451;DHT22;18070;52.474;13.304;2023-08-17T07:56:44;22.20;99.90
31451;DHT22;18070;52.474;13.304;2023-08-17T07:59:10;22.30;99.90
31451;DHT22;18070;52.474;13.304;2023-08-17T08:01:36;22.40;99.90
31451;DHT22;18070;52.474;13.304;2023-08-17T08:04:02;22.60;99.90
31451;DHT22;18070;52.474;13.304;2023-08-17T08:06:28;22.70;99.90
31451;DHT22;18070;52.474;13.304;2023-08-17T08:08:53;22.80;99.90
31451;DHT22;18070;52.474;13.304;2023-08-17T08:11:21;23.00;99.90
31451;DHT22;18070;52.474;13.304;2023-08-17T08:13:47;23.10;99.90
31451;DHT22;18070;52.474;13.304;2023-08-17T08:16:13;23.30;99.90
31451;DHT22;18070;52.474;13.304;2023-08-17T08:18:38;23.60;99.90
31451;DHT22;18070;52.474;13.304;2023-08-17T08:21:04;23.80;99.90
31451;DHT22;18070;52.474;13.304;2023-08-17T08:23:30;24.30;99.90
31451;DHT22;18070;52.474;13.304;2023-08-17T08:25:55;24.40;99.90
31451;DHT22;18070;52.474;13.304;2023-08-17T08:28:21;24.50;99.90
31451;DHT22;18070;52.474;13.304;2023-08-17T08:30:46;24.60;99.90
31451;DHT22;18070;52.474;13.304;2023-08-17T08:33:12;24.50;99.90
31451;DHT22;18070;52.474;13.304;2023-08-17T08:35:38;24.40;99.90
31451;DHT22;18070;52.474;13.304;2023-08-17T08:38:03;24.20;99.90
31451;DHT22;18070;52.474;13.304;2023-08-17T08:40:30;24.10;99.90
31451;DHT22;18070;52.474;13.304;2023-08-17T08:42:57;24.00;99.90
31451;DHT22;18070;52.474;13.304;2023-08-17T08:45:23;23.90;99.90
31451;DHT22;18070;52.474;13.304;2023-08-17T08:47:50;23.80;99.90
31451;DHT22;18070;52.474;13.304;2023-08-17T08:50:20;23.60;99.90
31451;DHT22;18070;52.474;13.304;2023-08-17T08:52:59;23.40;99.90
31451;DHT22;18070;52.474;13.304;2023-08-17T08:55:29;23.40;99.90
31451;DHT22;18070;52.474;13.304;2023-08-17T08:57:56;23.30;99.90
31451;DHT22;18070;52.474;13.304;2023-08-17T09:00:22;23.30;99.90
31451;DHT22;18070;52.474;13.304;2023-08-17T09:02:48;23.20;99.90
31451;DHT22;18070;52.474;13.304;2023-08-17T09:05:15;23.40;99.90
31451;DHT22;18070;52.474;13.304;2023-08-17T09:07:42;23.50;99.90
31451;DHT22;18070;52.474;13.304;2023-08-17T09:10:09;23.50;99.90
31451;DHT22;18070;52.474;13.304;2023-08-17T09:12:35;23.70;99.90
31451;DHT22;18070;52.474;13.304;2023-08-17T09:15:01;23.80;99.90
31451;DHT22;18070;52.474;13.304;2023-08-17T09:17:27;24.00;99.90
31451;DHT22;18070;52.474;13.304;2023-08-17T09:19:54;24.20;99.90
31451;DHT22;18070;52.474;13.304;2023-08-17T09:22:39;24.60;99.90
31451;DHT22;18070;52.474;13.304;2023-08-17T09:25:06;25.20;99.90
31451;DHT22;18070;52.474;13.304;2023-08-17T09:27:32;25.30;99.90
31451;DHT22;18070;52.474;13.304;2023-08-17T09:30:02;25.30;99.90
31451;DHT22;18070;52.474;13.304;2023-08-17T09:32:33;25.20;99.90
31451;DHT22;18070;52.474;13.304;2023-08-17T09:35:03;24.80;99.90
31451;DHT22;18070;52.474;13.304;2023-08-17T09:37:29;24.90;99.90
31451;DHT22;18070;52.474;13.304;2023-08-17T09:39:55;24.90;99.90
31451;DHT22;18070;52.474;13.304;2023-08-17T09:42:21;25.00;99.90
31451;DHT22;18070;52.474;13.304;2023-08-17T09:44:49;24.90;99.90
31451;DHT22;18070;52.474;13.304;2023-08-17T09:47:16;24.80;99.90
31451;DHT22;18070;52.474;13.304;2023-08-17T09:49:48;24.80;99.90
31451;DHT22;18070;52.474;13.304;2023-08-17T09:52:13;24.80;99.90
31451;DHT22;18070;52.474;13.304;2023-08-17T09:54:40;24.80;99.90
31451;DHT22;18070;52.474;13.304;2023-08-17T09:57:06;24.80;99.90
31451;DHT22;18070;52.474;13.304;2023-08-17T09:59:33;24.60;99.90
31451;DHT22;18070;52.474;13.304;2023-08-17T10:01:59;24.30;99.90
31451;DHT22;18070;52.474;13.304;2023-08-17T10:04:26;24.30;99.90
31451;DHT22;18070;52.474;13.304;2023-08-17T10:07:00;24.20;99.90
31451;DHT22;18070;52.474;13.304;2023-08-17T10:09:31;24.10;99.90
31451;DHT22;18070;52.474;13.304;2023-08-17T10:12:01;24.10;99.90
31451;DHT22;18070;52.474;13.304;2023-08-17T10:14:33;24.10;99.90
31451;DHT22;18070;52.474;13.304;2023-08-17T10:17:06;24.30;99.90
31451;DHT22;18070;52.474;13.304;2023-08-17T10:22:12;24.80;99.90
31451;DHT22;18070;52.474;13.304;2023-08-17T10:24:38;24.80;99.90
31451;DHT22;18070;52.474;13.304;2023-08-17T10:27:05;25.00;99.90
31451;DHT22;18070;52.474;13.304;2023-08-17T10:29:31;25.30;99.90
31451;DHT22;18070;52.474;13.304;2023-08-17T10:32:00;25.90;99.90
31451;DHT22;18070;52.474;13.304;2023-08-17T10:34:26;26.80;99.90
31451;DHT22;18070;52.474;13.304;2023-08-17T10:36:53;27.30;99.90
31451;DHT22;18070;52.474;13.304;2023-08-17T10:39:27;28.20;99.90
31451;DHT22;18070;52.474;13.304;2023-08-17T10:41:54;29.40;99.90
31451;DHT22;18070;52.474;13.304;2023-08-17T10:44:58;30.30;99.90
31451;DHT22;18070;52.474;13.304;2023-08-17T10:47:30;30.80;99.90
31451;DHT22;18070;52.474;13.304;2023-08-17T10:52:33;30.70;99.90
31451;DHT22;18070;52.474;13.304;2023-08-17T10:55:01;31.60;99.10
31451;DHT22;18070;52.474;13.304;2023-08-17T10:57:31;32.40;97.30
31451;DHT22;18070;52.474;13.304;2023-08-17T11:02:51;33.10;95.30
31451;DHT22;18070;52.474;13.304;2023-08-17T11:05:43;32.70;94.80
31451;DHT22;18070;52.474;13.304;2023-08-17T11:08:23;32.00;95.60
31451;DHT22;18070;52.474;13.304;2023-08-17T11:11:24;30.50;97.20
31451;DHT22;18070;52.474;13.304;2023-08-17T11:13:50;29.80;98.30
31451;DHT22;18070;52.474;13.304;2023-08-17T11:16:17;29.80;98.80
31451;DHT22;18070;52.474;13.304;2023-08-17T11:18:48;29.90;98.80
31451;DHT22;18070;52.474;13.304;2023-08-17T11:21:15;30.50;98.30
31451;DHT22;18070;52.474;13.304;2023-08-17T11:23:41;31.40;96.90
31451;DHT22;18070;52.474;13.304;2023-08-17T11:26:07;31.40;96.60
31451;DHT22;18070;52.474;13.304;2023-08-17T11:28:33;31.10;97.20
31451;DHT22;18070;52.474;13.304;2023-08-17T11:31:09;31.00;96.70
31451;DHT22;18070;52.474;13.304;2023-08-17T11:33:36;30.70;97.00
31451;DHT22;18070;52.474;13.304;2023-08-17T11:36:05;30.60;97.70
31451;DHT22;18070;52.474;13.304;2023-08-17T11:38:36;30.00;98.30
31451;DHT22;18070;52.474;13.304;2023-08-17T11:41:03;29.60;99.60
31451;DHT22;18070;52.474;13.304;2023-08-17T11:43:31;29.10;99.90
31451;DHT22;18070;52.474;13.304;2023-08-17T11:45:57;28.90;99.90
31451;DHT22;18070;52.474;13.304;2023-08-17T11:48:24;28.90;99.90
31451;DHT22;18070;52.474;13.304;2023-08-17T11:50:51;29.80;99.90
31451;DHT22;18070;52.474;13.304;2023-08-17T11:53:16;30.80;98.10
31451;DHT22;18070;52.474;13.304;2023-08-17T11:55:42;31.40;96.80
31451;DHT22;18070;52.474;13.304;2023-08-17T11:58:08;31.90;96.10
31451;DHT22;18070;52.474;13.304;2023-08-17T12:00:41;32.00;95.80
31451;DHT22;18070;52.474;13.304;2023-08-17T12:03:06;32.40;95.40
31451;DHT22;18070;52.474;13.304;2023-08-17T12:05:32;32.40;94.60
31451;DHT22;18070;52.474;13.304;2023-08-17T12:08:01;31.40;95.70
31451;DHT22;18070;52.474;13.304;2023-08-17T12:10:28;30.70;96.80
31451;DHT22;18070;52.474;13.304;2023-08-17T12:12:57;30.20;97.70
31451;DHT22;18070;52.474;13.304;2023-08-17T12:15:24;30.00;98.00
31451;DHT22;18070;52.474;13.304;2023-08-17T12:17:50;29.70;98.50
31451;DHT22;18070;52.474;13.304;2023-08-17T12:20:21;29.20;99.20
31451;DHT22;18070;52.474;13.304;2023-08-17T12:22:47;29.00;99.90
31451;DHT22;18070;52.474;13.304;2023-08-17T12:25:13;28.90;99.90
31451;DHT22;18070;52.474;13.304;2023-08-17T12:27:40;28.60;99.90
31451;DHT22;18070;52.474;13.304;2023-08-17T12:30:23;28.30;99.90
31451;DHT22;18070;52.474;13.304;2023-08-17T12:32:49;28.20;99.90
31451;DHT22;18070;52.474;13.304;2023-08-17T12:35:14;28.30;99.90
31451;DHT22;18070;52.474;13.304;2023-08-17T12:37:40;28.90;99.90
31451;DHT22;18070;52.474;13.304;2023-08-17T12:40:06;29.00;99.90
31451;DHT22;18070;52.474;13.304;2023-08-17T12:42:33;28.70;99.90
31451;DHT22;18070;52.474;13.304;2023-08-17T12:44:58;28.60;99.90
31451;DHT22;18070;52.474;13.304;2023-08-17T12:47:24;28.80;99.90
31451;DHT22;18070;52.474;13.304;2023-08-17T12:49:50;29.00;99.90
31451;DHT22;18070;52.474;13.304;2023-08-17T12:52:15;29.20;99.90
31451;DHT22;18070;52.474;13.304;2023-08-17T12:54:41;29.20;99.90
31451;DHT22;18070;52.474;13.304;2023-08-17T12:57:07;29.00;99.90
31451;DHT22;18070;52.474;13.304;2023-08-17T12:59:32;28.60;99.90
31451;DHT22;18070;52.474;13.304;2023-08-17T13:01:58;28.20;99.90
31451;DHT22;18070;52.474;13.304;2023-08-17T13:04:24;28.00;99.90
31451;DHT22;18070;52.474;13.304;2023-08-17T13:06:49;27.90;99.90
31451;DHT22;18070;52.474;13.304;2023-08-17T13:09:16;28.00;99.90
31451;DHT22;18070;52.474;13.304;2023-08-17T13:11:44;28.20;99.90
31451;DHT22;18070;52.474;13.304;2023-08-17T13:14:10;28.40;99.90
31451;DHT22;18070;52.474;13.304;2023-08-17T13:16:35;28.80;99.90
31451;DHT22;18070;52.474;13.304;2023-08-17T13:19:01;29.50;99.90
31451;DHT22;18070;52.474;13.304;2023-08-17T13:21:26;29.70;99.90
31451;DHT22;18070;52.474;13.304;2023-08-17T13:23:52;29.60;99.90
31451;DHT22;18070;52.474;13.304;2023-08-17T13:26:18;29.40;99.90
31451;DHT22;18070;52.474;13.304;2023-08-17T13:28:43;29.30;99.90
31451;DHT22;18070;52.474;13.304;2023-08-17T13:31:09;29.20;99.90
31451;DHT22;18070;52.474;13.304;2023-08-17T13:33:34;29.20;99.90
31451;DHT22;18070;52.474;13.304;2023-08-17T13:36:00;29.20;99.90
31451;DHT22;18070;52.474;13.304;2023-08-17T13:38:26;29.30;99.90
31451;DHT22;18070;52.474;13.304;2023-08-17T13:40:51;29.00;99.90
31451;DHT22;18070;52.474;13.304;2023-08-17T13:43:18;28.70;99.90
31451;DHT22;18070;52.474;13.304;2023-08-17T13:45:44;28.50;99.90
31451;DHT22;18070;52.474;13.304;2023-08-17T13:48:09;28.30;99.90
31451;DHT22;18070;52.474;13.304;2023-08-17T13:50:38;28.20;99.90
31451;DHT22;18070;52.474;13.304;2023-08-17T13:53:03;28.30;99.90
31451;DHT22;18070;52.474;13.304;2023-08-17T13:55:29;28.40;99.90
31451;DHT22;18070;52.474;13.304;2023-08-17T13:57:55;28.50;99.90
31451;DHT22;18070;52.474;13.304;2023-08-17T14:00:22;28.60;99.90
31451;DHT22;18070;52.474;13.304;2023-08-17T14:02:48;28.80;99.90
31451;DHT22;18070;52.474;13.304;2023-08-17T14:05:13;28.80;99.90
31451;DHT22;18070;52.474;13.304;2023-08-17T14:07:39;28.80;99.90
31451;DHT22;18070;52.474;13.304;2023-08-17T14:10:05;28.80;99.90
31451;DHT22;18070;52.474;13.304;2023-08-17T14:12:31;28.90;99.90
31451;DHT22;18070;52.474;13.304;2023-08-17T14:14:56;28.80;99.90
31451;DHT22;18070;52.474;13.304;2023-08-17T14:17:22;28.80;99.90
31451;DHT22;18070;52.474;13.304;2023-08-17T14:22:13;28.90;99.90
31451;DHT22;18070;52.474;13.304;2023-08-17T14:24:39;29.00;99.90
31451;DHT22;18070;52.474;13.304;2023-08-17T14:27:05;29.10;99.90
31451;DHT22;18070;52.474;13.304;2023-08-17T14:29:30;29.30;99.90
31451;DHT22;18070;52.474;13.304;2023-08-17T14:31:56;29.40;99.90
31451;DHT22;18070;52.474;13.304;2023-08-17T14:34:21;29.40;99.90
31451;DHT22;18070;52.474;13.304;2023-08-17T14:36:47;29.50;99.90
31451;DHT22;18070;52.474;13.304;2023-08-17T14:39:13;29.60;99.90
31451;DHT22;18070;52.474;13.304;2023-08-17T14:41:38;29.50;99.90
31451;DHT22;18070;52.474;13.304;2023-08-17T14:44:04;29.30;99.90
31451;DHT22;18070;52.474;13.304;2023-08-17T14:46:30;29.40;99.90
31451;DHT22;18070;52.474;13.304;2023-08-17T14:48:56;29.30;99.90
31451;DHT22;18070;52.474;13.304;2023-08-17T14:51:21;29.00;99.90
31451;DHT22;18070;52.474;13.304;2023-08-17T14:53:48;28.80;99.90
31451;DHT22;18070;52.474;13.304;2023-08-17T14:56:13;28.50;99.90
31451;DHT22;18070;52.474;13.304;2023-08-17T14:58:39;28.50;99.90
31451;DHT22;18070;52.474;13.304;2023-08-17T15:01:04;28.60;99.90
31451;DHT22;18070;52.474;13.304;2023-08-17T15:03:30;28.70;99.90
31451;DHT22;18070;52.474;13.304;2023-08-17T15:05:55;28.60;99.90
31451;DHT22;18070;52.474;13.304;2023-08-17T15:08:21;28.70;99.90
31451;DHT22;18070;52.474;13.304;2023-08-17T15:10:47;28.60;99.90
31451;DHT22;18070;52.474;13.304;2023-08-17T15:13:14;28.40;99.90
31451;DHT22;18070;52.474;13.304;2023-08-17T15:15:40;28.30;99.90
31451;DHT22;18070;52.474;13.304;2023-08-17T15:18:07;28.20;99.90
31451;DHT22;18070;52.474;13.304;2023-08-17T15:20:33;28.20;99.90
31451;DHT22;18070;52.474;13.304;2023-08-17T15:22:58;28.30;99.90